Hc Svea Kim — V2BB — position and weather

sailwx.info

Track history (hours):
 
Tides and Currents Weather Stations Pressure Air Temp Water Temp Dewpoint Dewpoint Depression Visibility Wind Speed Wind Dir Waves Ship Positions

Hc Svea Kim

Last reported at 2014-Sep-23 23:19 UTC. Time now 2014-Oct-23 09:37 UTC.
Position N 37°39' W 009°28'.
Warning: this ship's position is 29 days out of date.

Length 129 m; draft 7.7 m.

Type: Cargo ship. MMSI: 304182000.

Date/timePositionNaut miles runAvg speedWind from/ knotsBaromVisibWave heightAir tempDewpointWater temp
2014-Sep-23 23:19N 37°39' W 009°28'911.7
2014-Sep-23 22:33N 37°48' W 009°24'1212.2
2014-Sep-23 21:33N 37°59' W 009°17'1212.2
2014-Sep-23 20:33N 38°09' W 009°10'1211.7
2014-Sep-23 19:33N 38°20' W 009°03'1211.7
2014-Sep-23 18:31N 38°30' W 008°55'2 2.4
2014-Sep-23 17:33N 38°31' W 008°52'0 0.0
2014-Sep-23 15:30N 38°31' W 008°52'0 0.0
2014-Sep-23 13:21N 38°31' W 008°52'0 0.0
2014-Sep-23 12:30N 38°31' W 008°52'0 0.0
2014-Sep-23 11:33N 38°31' W 008°52'0 0.0
2014-Sep-23 10:21N 38°31' W 008°52'0 0.0
2014-Sep-23 09:33N 38°31' W 008°52'0 0.0
2014-Sep-23 08:30N 38°31' W 008°52'0 0.0
2014-Sep-23 07:27N 38°31' W 008°52'0 0.0
2014-Sep-22 21:12N 38°31' W 008°52'2 2.8
2014-Sep-22 20:20N 38°30' W 008°55'7 9.3
2014-Sep-22 19:33N 38°25' W 009°02'1111.2
2014-Sep-22 18:33N 38°20' W 009°15'  
2014-Sep-19 08:11N 50°35' E 000°18'811.8
2014-Sep-19 07:33N 50°37' E 000°30'1111.3
2014-Sep-19 06:33N 50°43' E 000°45'1211.5
2014-Sep-19 05:33N 50°49' E 000°60'2512.7
2014-Sep-19 03:33N 51°05' E 001°31'1313.3
2014-Sep-19 02:33N 51°15' E 001°46'1212.5
2014-Sep-19 01:33N 51°25' E 001°57'1211.5
2014-Sep-19 00:33N 51°21' E 002°15'1111.1
2014-Sep-18 23:33N 51°23' E 002°32'1110.9
2014-Sep-18 22:32N 51°22' E 002°50'1010.6
2014-Sep-18 21:33N 51°24' E 003°07'1110.6
2014-Sep-18 20:33N 51°25' E 003°24'9 9.3
2014-Sep-18 19:33N 51°25' E 003°39'10 9.6
2014-Sep-18 18:33N 51°21' E 003°53'7 6.7
2014-Sep-18 17:34N 51°24' E 004°02'8 8.5
2014-Sep-18 16:34N 51°21' E 004°15'5 5.5
2014-Sep-18 15:34N 51°17' E 004°20'1 1.3
2014-Sep-18 14:33N 51°16' E 004°21'1 1.4
2014-Sep-18 13:33N 51°15' E 004°23'0 0.0
2014-Sep-18 12:33N 51°15' E 004°23'0 0.0
2014-Sep-18 11:33N 51°15' E 004°23'0 0.0
2014-Sep-18 10:33N 51°15' E 004°23'0 0.0
2014-Sep-18 09:33N 51°15' E 004°23'0 0.0
2014-Sep-18 08:33N 51°15' E 004°23'0 0.0
2014-Sep-18 07:33N 51°15' E 004°23'0 0.0
2014-Sep-18 06:33N 51°15' E 004°23'0 0.0
2014-Sep-18 05:33N 51°15' E 004°23'0 0.0
2014-Sep-18 04:33N 51°15' E 004°23'0 0.0
2014-Sep-18 03:33N 51°15' E 004°23'0 0.0
2014-Sep-18 02:33N 51°15' E 004°23'0 0.0
2014-Sep-18 01:33N 51°15' E 004°23'0 0.0
2014-Sep-18 00:33N 51°15' E 004°23'0 0.0
2014-Sep-17 23:33N 51°15' E 004°23'0 0.0
2014-Sep-17 22:33N 51°15' E 004°23'0 0.0
2014-Sep-17 21:33N 51°15' E 004°23'0 0.0
2014-Sep-17 20:33N 51°15' E 004°23'0 0.0
2014-Sep-17 19:33N 51°15' E 004°23'0 0.0
2014-Sep-17 18:33N 51°15' E 004°23'0 0.0
2014-Sep-17 17:30N 51°15' E 004°23'0 0.0
2014-Sep-17 16:33N 51°15' E 004°23'0 0.0
2014-Sep-17 15:33N 51°15' E 004°23'0 0.0
2014-Sep-17 14:33N 51°15' E 004°23'0 0.0
2014-Sep-17 13:33N 51°15' E 004°23'0 0.0
2014-Sep-17 12:33N 51°15' E 004°23'0 0.0
2014-Sep-17 11:33N 51°15' E 004°23'1 0.6
2014-Sep-17 10:34N 51°15' E 004°22'2 1.9
2014-Sep-17 09:33N 51°17' E 004°22'0 0.0
2014-Sep-17 08:33N 51°17' E 004°22'0 0.0
2014-Sep-17 07:24N 51°17' E 004°22'0 0.0
2014-Sep-17 06:27N 51°17' E 004°22'0 0.0
2014-Sep-17 05:33N 51°17' E 004°22'0 0.0
2014-Sep-17 04:24N 51°17' E 004°22'0 0.0
2014-Sep-17 02:33N 51°17' E 004°22'0 0.0
2014-Sep-17 00:33N 51°17' E 004°22'0 0.0
2014-Sep-16 23:27N 51°17' E 004°22'0 0.0
2014-Sep-16 22:30N 51°17' E 004°22'0 0.0
2014-Sep-16 21:27N 51°17' E 004°22'0 0.0
2014-Sep-16 20:06N 51°17' E 004°22'0 0.0
2014-Sep-16 19:33N 51°17' E 004°22'0 0.0
2014-Sep-16 18:33N 51°17' E 004°22'0 0.0
2014-Sep-16 17:24N 51°17' E 004°22'0 0.0
2014-Sep-16 16:33N 51°17' E 004°22'0 0.0
2014-Sep-16 15:33N 51°17' E 004°22'0 0.0
2014-Sep-16 14:30N 51°17' E 004°22'0 0.0
2014-Sep-16 13:33N 51°17' E 004°22'0 0.0
2014-Sep-16 12:33N 51°17' E 004°22'0 0.0
2014-Sep-16 11:33N 51°17' E 004°22'0 0.0
2014-Sep-16 10:27N 51°17' E 004°22'0 0.0
2014-Sep-16 09:33N 51°17' E 004°22'0 0.0
2014-Sep-16 08:33N 51°17' E 004°22'0 0.0
2014-Sep-16 07:33N 51°17' E 004°22'0 0.0
2014-Sep-16 06:33N 51°17' E 004°22'0 0.0
2014-Sep-16 05:33N 51°17' E 004°22'0 0.0
2014-Sep-16 04:33N 51°17' E 004°22'0 0.0
2014-Sep-16 03:33N 51°17' E 004°22'0 0.0
2014-Sep-16 02:30N 51°17' E 004°22'0 0.0
2014-Sep-16 01:33N 51°17' E 004°22'0 0.0
2014-Sep-16 00:33N 51°17' E 004°22'0 0.0
2014-Sep-15 23:33N 51°17' E 004°22'0 0.0
2014-Sep-15 22:33N 51°17' E 004°22'0 0.0
2014-Sep-15 21:33N 51°17' E 004°22'0 0.0
2014-Sep-15 20:33N 51°17' E 004°22'0 0.0
2014-Sep-15 19:33N 51°17' E 004°22'0 0.0
2014-Sep-15 18:33N 51°17' E 004°22'0 0.0
2014-Sep-15 17:24N 51°17' E 004°22'0 0.0
2014-Sep-15 16:21N 51°17' E 004°22'0 0.0
2014-Sep-15 15:33N 51°17' E 004°22'0 0.0
2014-Sep-15 14:33N 51°17' E 004°22'0 0.0
2014-Sep-15 13:33N 51°17' E 004°22'0 0.0
2014-Sep-15 12:30N 51°17' E 004°22'0 0.0
2014-Sep-15 11:33N 51°17' E 004°22'0 0.0
2014-Sep-15 10:30N 51°17' E 004°22'0 0.0
2014-Sep-15 09:30N 51°17' E 004°22'0 0.0
2014-Sep-15 08:30N 51°17' E 004°22'0 0.0
2014-Sep-15 07:30N 51°17' E 004°22'0 0.0
2014-Sep-15 06:30N 51°17' E 004°22'0 0.0
2014-Sep-15 05:33N 51°17' E 004°22'0 0.0
2014-Sep-15 04:33N 51°17' E 004°22'0 0.0
2014-Sep-15 03:33N 51°17' E 004°22'0 0.0
2014-Sep-15 02:33N 51°17' E 004°22'0 0.0
2014-Sep-15 01:33N 51°17' E 004°22'0 0.0
2014-Sep-15 00:30N 51°17' E 004°22'0 0.0
2014-Sep-14 23:30N 51°17' E 004°22'0 0.0
2014-Sep-14 22:33N 51°17' E 004°22'0 0.0
2014-Sep-14 21:30N 51°17' E 004°22'0 0.0
2014-Sep-14 20:33N 51°17' E 004°22'0 0.0
2014-Sep-14 19:33N 51°17' E 004°22'0 0.0
2014-Sep-14 18:33N 51°17' E 004°22'0 0.0
2014-Sep-14 17:33N 51°17' E 004°22'0 0.0
2014-Sep-14 16:33N 51°17' E 004°22'0 0.0
2014-Sep-14 15:33N 51°17' E 004°22'0 0.0
2014-Sep-14 14:33N 51°17' E 004°22'0 0.0
2014-Sep-14 13:33N 51°17' E 004°22'0 0.0
2014-Sep-14 12:30N 51°17' E 004°22'0 0.0
2014-Sep-14 11:33N 51°17' E 004°22'0 0.0
2014-Sep-14 10:33N 51°17' E 004°22'0 0.0
2014-Sep-14 09:30N 51°17' E 004°22'0 0.0
2014-Sep-14 08:33N 51°17' E 004°22'0 0.0
2014-Sep-14 07:33N 51°17' E 004°22'0 0.0
2014-Sep-14 06:33N 51°17' E 004°22'0 0.0
2014-Sep-14 05:33N 51°17' E 004°22'0 0.0
2014-Sep-14 04:33N 51°17' E 004°22'0 0.0
2014-Sep-14 03:33N 51°17' E 004°22'0 0.0
2014-Sep-14 02:33N 51°17' E 004°22'0 0.0
2014-Sep-14 01:33N 51°17' E 004°22'  
Track history (hours):
 
Tides and Currents Weather Stations Pressure Air Temp Water Temp Dewpoint Dewpoint Depression Visibility Wind Speed Wind Dir Waves Ship Positions

Hc Svea Kim

Last reported at 2014-Sep-23 23:19 UTC. Time now 2014-Oct-23 09:37 UTC.
Position N 37°39' W 009°28'.
Warning: this ship's position is 29 days out of date.

Length 129 m; draft 7.7 m.

Type: Cargo ship. MMSI: 304182000.

Date/timePositionNaut miles runAvg speedWind from/ knotsBaromVisibWave heightAir tempDewpointWater temp
2014-Sep-23 23:19N 37°39' W 009°28'911.7
2014-Sep-23 22:33N 37°48' W 009°24'1212.2
2014-Sep-23 21:33N 37°59' W 009°17'1212.2
2014-Sep-23 20:33N 38°09' W 009°10'1211.7
2014-Sep-23 19:33N 38°20' W 009°03'1211.7
2014-Sep-23 18:31N 38°30' W 008°55'2 2.4
2014-Sep-23 17:33N 38°31' W 008°52'0 0.0
2014-Sep-23 15:30N 38°31' W 008°52'0 0.0
2014-Sep-23 13:21N 38°31' W 008°52'0 0.0
2014-Sep-23 12:30N 38°31' W 008°52'0 0.0
2014-Sep-23 11:33N 38°31' W 008°52'0 0.0
2014-Sep-23 10:21N 38°31' W 008°52'0 0.0
2014-Sep-23 09:33N 38°31' W 008°52'0 0.0
2014-Sep-23 08:30N 38°31' W 008°52'0 0.0
2014-Sep-23 07:27N 38°31' W 008°52'0 0.0
2014-Sep-22 21:12N 38°31' W 008°52'2 2.8
2014-Sep-22 20:20N 38°30' W 008°55'7 9.3
2014-Sep-22 19:33N 38°25' W 009°02'1111.2
2014-Sep-22 18:33N 38°20' W 009°15'  
2014-Sep-19 08:11N 50°35' E 000°18'811.8
2014-Sep-19 07:33N 50°37' E 000°30'1111.3
2014-Sep-19 06:33N 50°43' E 000°45'1211.5
2014-Sep-19 05:33N 50°49' E 000°60'2512.7
2014-Sep-19 03:33N 51°05' E 001°31'1313.3
2014-Sep-19 02:33N 51°15' E 001°46'1212.5
2014-Sep-19 01:33N 51°25' E 001°57'1211.5
2014-Sep-19 00:33N 51°21' E 002°15'1111.1
2014-Sep-18 23:33N 51°23' E 002°32'1110.9
2014-Sep-18 22:32N 51°22' E 002°50'1010.6
2014-Sep-18 21:33N 51°24' E 003°07'1110.6
2014-Sep-18 20:33N 51°25' E 003°24'9 9.3
2014-Sep-18 19:33N 51°25' E 003°39'10 9.6
2014-Sep-18 18:33N 51°21' E 003°53'7 6.7
2014-Sep-18 17:34N 51°24' E 004°02'8 8.5
2014-Sep-18 16:34N 51°21' E 004°15'5 5.5
2014-Sep-18 15:34N 51°17' E 004°20'1 1.3
2014-Sep-18 14:33N 51°16' E 004°21'1 1.4
2014-Sep-18 13:33N 51°15' E 004°23'0 0.0
2014-Sep-18 12:33N 51°15' E 004°23'0 0.0
2014-Sep-18 11:33N 51°15' E 004°23'0 0.0
2014-Sep-18 10:33N 51°15' E 004°23'0 0.0
2014-Sep-18 09:33N 51°15' E 004°23'0 0.0
2014-Sep-18 08:33N 51°15' E 004°23'0 0.0
2014-Sep-18 07:33N 51°15' E 004°23'0 0.0
2014-Sep-18 06:33N 51°15' E 004°23'0 0.0
2014-Sep-18 05:33N 51°15' E 004°23'0 0.0
2014-Sep-18 04:33N 51°15' E 004°23'0 0.0
2014-Sep-18 03:33N 51°15' E 004°23'0 0.0
2014-Sep-18 02:33N 51°15' E 004°23'0 0.0
2014-Sep-18 01:33N 51°15' E 004°23'0 0.0
2014-Sep-18 00:33N 51°15' E 004°23'0 0.0
2014-Sep-17 23:33N 51°15' E 004°23'0 0.0
2014-Sep-17 22:33N 51°15' E 004°23'0 0.0
2014-Sep-17 21:33N 51°15' E 004°23'0 0.0
2014-Sep-17 20:33N 51°15' E 004°23'0 0.0
2014-Sep-17 19:33N 51°15' E 004°23'0 0.0
2014-Sep-17 18:33N 51°15' E 004°23'0 0.0
2014-Sep-17 17:30N 51°15' E 004°23'0 0.0
2014-Sep-17 16:33N 51°15' E 004°23'0 0.0
2014-Sep-17 15:33N 51°15' E 004°23'0 0.0
2014-Sep-17 14:33N 51°15' E 004°23'0 0.0
2014-Sep-17 13:33N 51°15' E 004°23'0 0.0
2014-Sep-17 12:33N 51°15' E 004°23'0 0.0
2014-Sep-17 11:33N 51°15' E 004°23'1 0.6
2014-Sep-17 10:34N 51°15' E 004°22'2 1.9
2014-Sep-17 09:33N 51°17' E 004°22'0 0.0
2014-Sep-17 08:33N 51°17' E 004°22'0 0.0
2014-Sep-17 07:24N 51°17' E 004°22'0 0.0
2014-Sep-17 06:27N 51°17' E 004°22'0 0.0
2014-Sep-17 05:33N 51°17' E 004°22'0 0.0
2014-Sep-17 04:24N 51°17' E 004°22'0 0.0
2014-Sep-17 02:33N 51°17' E 004°22'0 0.0
2014-Sep-17 00:33N 51°17' E 004°22'0 0.0
2014-Sep-16 23:27N 51°17' E 004°22'0 0.0
2014-Sep-16 22:30N 51°17' E 004°22'0 0.0
2014-Sep-16 21:27N 51°17' E 004°22'0 0.0
2014-Sep-16 20:06N 51°17' E 004°22'0 0.0
2014-Sep-16 19:33N 51°17' E 004°22'0 0.0
2014-Sep-16 18:33N 51°17' E 004°22'0 0.0
2014-Sep-16 17:24N 51°17' E 004°22'0 0.0
2014-Sep-16 16:33N 51°17' E 004°22'0 0.0
2014-Sep-16 15:33N 51°17' E 004°22'0 0.0
2014-Sep-16 14:30N 51°17' E 004°22'0 0.0
2014-Sep-16 13:33N 51°17' E 004°22'0 0.0
2014-Sep-16 12:33N 51°17' E 004°22'0 0.0
2014-Sep-16 11:33N 51°17' E 004°22'0 0.0
2014-Sep-16 10:27N 51°17' E 004°22'0 0.0
2014-Sep-16 09:33N 51°17' E 004°22'0 0.0
2014-Sep-16 08:33N 51°17' E 004°22'0 0.0
2014-Sep-16 07:33N 51°17' E 004°22'0 0.0
2014-Sep-16 06:33N 51°17' E 004°22'0 0.0
2014-Sep-16 05:33N 51°17' E 004°22'0 0.0
2014-Sep-16 04:33N 51°17' E 004°22'0 0.0
2014-Sep-16 03:33N 51°17' E 004°22'0 0.0
2014-Sep-16 02:30N 51°17' E 004°22'0 0.0
2014-Sep-16 01:33N 51°17' E 004°22'0 0.0
2014-Sep-16 00:33N 51°17' E 004°22'0 0.0
2014-Sep-15 23:33N 51°17' E 004°22'0 0.0
2014-Sep-15 22:33N 51°17' E 004°22'0 0.0
2014-Sep-15 21:33N 51°17' E 004°22'0 0.0
2014-Sep-15 20:33N 51°17' E 004°22'0 0.0
2014-Sep-15 19:33N 51°17' E 004°22'0 0.0
2014-Sep-15 18:33N 51°17' E 004°22'0 0.0
2014-Sep-15 17:24N 51°17' E 004°22'0 0.0
2014-Sep-15 16:21N 51°17' E 004°22'0 0.0
2014-Sep-15 15:33N 51°17' E 004°22'0 0.0
2014-Sep-15 14:33N 51°17' E 004°22'0 0.0
2014-Sep-15 13:33N 51°17' E 004°22'0 0.0
2014-Sep-15 12:30N 51°17' E 004°22'0 0.0
2014-Sep-15 11:33N 51°17' E 004°22'0 0.0
2014-Sep-15 10:30N 51°17' E 004°22'0 0.0
2014-Sep-15 09:30N 51°17' E 004°22'0 0.0
2014-Sep-15 08:30N 51°17' E 004°22'0 0.0
2014-Sep-15 07:30N 51°17' E 004°22'0 0.0
2014-Sep-15 06:30N 51°17' E 004°22'0 0.0
2014-Sep-15 05:33N 51°17' E 004°22'0 0.0
2014-Sep-15 04:33N 51°17' E 004°22'0 0.0
2014-Sep-15 03:33N 51°17' E 004°22'0 0.0
2014-Sep-15 02:33N 51°17' E 004°22'0 0.0
2014-Sep-15 01:33N 51°17' E 004°22'0 0.0
2014-Sep-15 00:30N 51°17' E 004°22'0 0.0
2014-Sep-14 23:30N 51°17' E 004°22'0 0.0
2014-Sep-14 22:33N 51°17' E 004°22'0 0.0
2014-Sep-14 21:30N 51°17' E 004°22'0 0.0
2014-Sep-14 20:33N 51°17' E 004°22'0 0.0
2014-Sep-14 19:33N 51°17' E 004°22'0 0.0
2014-Sep-14 18:33N 51°17' E 004°22'0 0.0
2014-Sep-14 17:33N 51°17' E 004°22'0 0.0
2014-Sep-14 16:33N 51°17' E 004°22'0 0.0
2014-Sep-14 15:33N 51°17' E 004°22'0 0.0
2014-Sep-14 14:33N 51°17' E 004°22'0 0.0
2014-Sep-14 13:33N 51°17' E 004°22'0 0.0
2014-Sep-14 12:30N 51°17' E 004°22'0 0.0
2014-Sep-14 11:33N 51°17' E 004°22'0 0.0
2014-Sep-14 10:33N 51°17' E 004°22'0 0.0
2014-Sep-14 09:30N 51°17' E 004°22'0 0.0
2014-Sep-14 08:33N 51°17' E 004°22'0 0.0
2014-Sep-14 07:33N 51°17' E 004°22'0 0.0
2014-Sep-14 06:33N 51°17' E 004°22'0 0.0
2014-Sep-14 05:33N 51°17' E 004°22'0 0.0
2014-Sep-14 04:33N 51°17' E 004°22'0 0.0
2014-Sep-14 03:33N 51°17' E 004°22'0 0.0
2014-Sep-14 02:33N 51°17' E 004°22'0 0.0
2014-Sep-14 01:33N 51°17' E 004°22'  

Dump ship's entire track history